X  Schließen Metar Luftfahrt Wetterdaten        LEGR Granada
Temperatur
23°C Temperatur
15°C Taupunkt
61% Feuchtigkeit



Wind
6 KM/H
3 MPH
1 M/S
3 KTS



-1°
VRB
Aktuelle Wetterlage

Partly Cloudy with Light Rain Teilweise bewölkt , Leicht Regen
Luftdruck 1014 (hPa) - 29.95 (inHg)
Sichtweite 30 (Meile) - 48 (km)
Flughafen
Flughafen Code LEGR

Position : Granada
Entfernung: 56 (km)

Metar:
METAR LEGR 211500Z VRB03KT 9999 -RA FEW050CB SCT070TCU 23/15 Q1017

Zeit: 21-09-2021 17:00 CEST